Maxwell Air Force Base
KMXF : now visible

Airfield :











YOU CAN JOIN US ON...

 
LOGIN :

Register | Disclaimer

   EN    FR    IT 

 









Legend :    VFR   Marginal VFR   IFR   Intensive IFR   Very Intensive IFR
Visi :
Ceiling :
>= 8 km
>= 3000ft
5 to 8 km
1000 to 3000 ft
1500m to 5 km
500 to 1000 ft
800 to 1500m
200 to 500 ft
< 800m
< 200 ft
Symbols :   Thunderstorms  Fog  Heavy snow  Heavy precipitations  Wind > 20 kt






- Airport Elevation : 171 ft


KMXF - Maxwell Air Force Base

CURRENT METAR :
  • 041555Z AUTO 00000KT 10SM OVC007 17/15 A3024 RMK AO2 SLP242 T01680153

EXPIRED METARs :
  • 041525Z AUTO 00000KT 10SM BKN007 OVC012 16/15 A3024 RMK AO2 CIG 007V013 SLP243
  • 041455Z AUTO 00000KT 10SM FEW006 OVC012 16/15 A3025 RMK AO2 SLP246 T01580145 52014
  • 041355Z AUTO 06004KT 10SM FEW005 OVC011 16/14 A3024 RMK AO2 SLP243 T01560143
  • 041340Z AUTO 04004KT 9SM SCT005 OVC012 16/14 A3024 RMK AO2 CIG 005V012 SLP243
  • 041310Z AUTO 02003KT 7SM OVC005 16/14 A3024 RMK AO2 SLP243

TAF AMD TAF KMXF
Valid from the 04 at 15:00 until the 05 at 18:00 UTC


041535Z 0415/0518 VRB06KT 8000 BR BKN007 OVC012 QNH3020INS
BECMG 0416/0417 VRB06KT 9999 NSW BKN012 QNH3025INS
BECMG 0418/0419 VRB06KT 9999 BKN025 QNH3022INS
BECMG 0421/0422 VRB06KT 9999 BKN035 QNH3014INS TX17/0420Z TN13/0508Z
KZTL FIR / North America



MET'MAP, your aeronautical weather chart ! - Copyright ORBIFLY December 2007 - Disclaimer

ORBIFLY MET'MAP TEAM :

Programming & Development : Alexandra Zaïnal
Original concept : Baudouin d'Aumeries
Technical & hardware support : Manuel Goepfert
Assistance : Marc-Olivier Méhu




SOURCES & CREDITS :

   NOAA       Earth
Advisory